createdAt,value
2023-04-28T00:00:56.861Z,10.50
2023-04-28T00:03:24.204Z,10.50
2023-04-28T00:05:55.888Z,10.50
2023-04-28T00:08:29.093Z,10.50
2023-04-28T00:11:01.541Z,10.50
2023-04-28T00:13:36.252Z,10.50
2023-04-28T00:16:06.597Z,10.40
2023-04-28T00:18:37.660Z,10.40
2023-04-28T00:21:05.275Z,10.40
2023-04-28T00:23:35.549Z,10.40
2023-04-28T00:26:05.137Z,10.40
2023-04-28T00:28:34.776Z,10.40
2023-04-28T00:31:02.930Z,10.30
2023-04-28T00:33:32.496Z,10.30
2023-04-28T00:36:06.906Z,10.20
2023-04-28T00:38:34.541Z,10.20
2023-04-28T00:41:01.953Z,10.20
2023-04-28T00:43:32.547Z,10.20
2023-04-28T00:46:02.304Z,10.20
2023-04-28T00:48:29.908Z,10.20
2023-04-28T00:50:58.913Z,10.20
2023-04-28T00:53:26.277Z,10.20
2023-04-28T00:55:54.806Z,10.20
2023-04-28T00:58:22.210Z,10.20
2023-04-28T01:00:50.257Z,10.10
2023-04-28T01:03:19.891Z,10.10
2023-04-28T01:05:50.449Z,10.20
2023-04-28T01:08:24.991Z,10.20
2023-04-28T01:10:54.942Z,10.20
2023-04-28T01:13:41.492Z,10.20
2023-04-28T01:16:15.749Z,10.20
2023-04-28T01:18:50.764Z,10.20
2023-04-28T01:21:33.037Z,10.20
2023-04-28T01:24:07.179Z,10.20
2023-04-28T01:26:34.501Z,10.10
2023-04-28T01:29:02.099Z,10.10
2023-04-28T01:31:38.074Z,10.10
2023-04-28T01:34:05.595Z,10.00
2023-04-28T01:36:44.429Z,10.00
2023-04-28T01:39:15.258Z,10.00
2023-04-28T01:41:42.921Z,9.90
2023-04-28T01:44:10.417Z,9.80
2023-04-28T01:46:37.833Z,9.90
2023-04-28T01:49:05.116Z,9.80
2023-04-28T01:51:35.518Z,9.80
2023-04-28T01:54:12.759Z,9.80
2023-04-28T01:56:42.597Z,9.80
2023-04-28T01:59:23.177Z,9.70
2023-04-28T02:01:50.844Z,9.70
2023-04-28T02:04:21.345Z,9.70
2023-04-28T02:06:48.742Z,9.70
2023-04-28T02:09:17.295Z,9.70
2023-04-28T02:11:44.650Z,9.70
2023-04-28T02:14:24.836Z,9.70
2023-04-28T02:16:54.751Z,9.70
2023-04-28T02:19:29.268Z,9.70
2023-04-28T02:21:59.761Z,9.70
2023-04-28T02:24:30.885Z,9.60
2023-04-28T02:27:00.865Z,9.60
2023-04-28T02:29:29.458Z,9.70
2023-04-28T02:32:03.571Z,9.60
2023-04-28T02:34:31.057Z,9.60
2023-04-28T02:37:00.262Z,9.60
2023-04-28T02:39:31.401Z,9.60
2023-04-28T02:42:00.860Z,9.60
2023-04-28T02:44:28.216Z,9.60
2023-04-28T02:46:55.508Z,9.60
2023-04-28T02:49:31.373Z,9.60
2023-04-28T02:52:03.893Z,9.60
2023-04-28T02:54:35.544Z,9.60
2023-04-28T02:57:04.764Z,9.60
2023-04-28T02:59:32.121Z,9.60
2023-04-28T03:02:00.093Z,9.60
2023-04-28T03:04:30.280Z,9.60
2023-04-28T03:07:07.258Z,9.60
2023-04-28T03:09:41.170Z,9.60
2023-04-28T03:12:18.046Z,9.50
2023-04-28T03:14:48.129Z,9.50
2023-04-28T03:17:18.198Z,9.50
2023-04-28T03:19:46.882Z,9.50
2023-04-28T03:22:18.564Z,9.50
2023-04-28T03:24:47.206Z,9.50
2023-04-28T03:27:21.117Z,9.50
2023-04-28T03:29:52.630Z,9.50
2023-04-28T03:32:20.119Z,9.50
2023-04-28T03:34:51.990Z,9.50
2023-04-28T03:37:19.414Z,9.50
2023-04-28T03:39:49.098Z,9.50
2023-04-28T03:42:19.038Z,9.50
2023-04-28T03:45:17.082Z,9.50
2023-04-28T03:47:50.793Z,9.50
2023-04-28T03:50:19.012Z,9.50
2023-04-28T03:52:46.607Z,9.50
2023-04-28T03:55:18.897Z,9.50
2023-04-28T03:57:51.217Z,9.50
2023-04-28T04:00:23.506Z,9.50
2023-04-28T04:02:56.350Z,9.50
2023-04-28T04:05:28.614Z,9.50
2023-04-28T04:07:56.312Z,9.50
2023-04-28T04:10:24.730Z,9.50
2023-04-28T04:12:52.051Z,9.50
2023-04-28T04:15:19.296Z,9.50
2023-04-28T04:17:50.215Z,9.50
2023-04-28T04:20:21.290Z,9.50
2023-04-28T04:22:48.568Z,9.50
2023-04-28T04:25:16.000Z,9.50
2023-04-28T04:27:48.095Z,9.50
2023-04-28T04:30:15.901Z,9.50
2023-04-28T04:32:49.505Z,9.50
2023-04-28T04:35:19.617Z,9.60
2023-04-28T04:37:51.836Z,9.60
2023-04-28T04:40:20.443Z,9.60
2023-04-28T04:42:50.587Z,9.60
2023-04-28T04:45:19.691Z,9.60
2023-04-28T04:47:47.805Z,9.60
2023-04-28T04:50:18.517Z,9.60
2023-04-28T04:52:54.357Z,9.60
2023-04-28T04:55:28.490Z,9.60
2023-04-28T04:58:01.798Z,9.60
2023-04-28T05:00:30.253Z,9.60
2023-04-28T05:03:01.084Z,9.60
2023-04-28T05:05:38.504Z,9.60
2023-04-28T05:08:16.773Z,9.70
2023-04-28T05:10:46.915Z,9.70
2023-04-28T05:13:17.597Z,9.70
2023-04-28T05:15:45.345Z,9.70
2023-04-28T05:18:30.631Z,9.80
2023-04-28T05:21:06.798Z,9.80
2023-04-28T05:23:37.039Z,9.90
2023-04-28T05:26:05.229Z,9.90
2023-04-28T05:28:32.852Z,10.00
2023-04-28T05:31:02.080Z,10.00
2023-04-28T05:33:31.440Z,10.00
2023-04-28T05:36:00.149Z,10.10
2023-04-28T05:38:31.341Z,10.10
2023-04-28T05:41:01.139Z,10.10
2023-04-28T05:43:32.262Z,10.20
2023-04-28T05:46:00.662Z,10.20
2023-04-28T05:48:31.620Z,10.20
2023-04-28T05:51:06.296Z,10.10
2023-04-28T05:53:33.976Z,10.20
2023-04-28T05:56:03.346Z,10.20
2023-04-28T05:58:33.141Z,10.20
2023-04-28T06:01:00.483Z,10.20
2023-04-28T06:03:30.295Z,10.20
2023-04-28T06:05:57.917Z,10.30
2023-04-28T06:08:26.904Z,10.30
2023-04-28T06:10:54.242Z,10.30
2023-04-28T06:13:21.890Z,10.30
2023-04-28T06:15:51.105Z,10.30
2023-04-28T06:18:18.372Z,10.30
2023-04-28T06:20:45.475Z,10.30
2023-04-28T06:23:12.717Z,10.20
2023-04-28T06:25:45.043Z,10.20
2023-04-28T06:28:15.691Z,10.10
2023-04-28T06:30:46.250Z,10.10
2023-04-28T06:33:15.854Z,10.10
2023-04-28T06:35:42.922Z,10.20
2023-04-28T06:38:10.136Z,10.20
2023-04-28T06:40:37.662Z,10.30
2023-04-28T06:43:06.764Z,10.30
2023-04-28T06:45:38.833Z,10.40
2023-04-28T06:48:07.092Z,10.40
2023-04-28T06:50:38.571Z,10.40
2023-04-28T06:53:09.109Z,10.50
2023-04-28T06:55:40.151Z,10.60
2023-04-28T06:58:09.984Z,10.60
2023-04-28T07:00:39.594Z,10.70
2023-04-28T07:03:09.610Z,10.80
2023-04-28T07:05:40.546Z,10.90
2023-04-28T07:08:08.343Z,11.10
2023-04-28T07:10:36.843Z,11.30
2023-04-28T07:13:06.545Z,11.40
2023-04-28T07:15:36.573Z,11.60
2023-04-28T07:18:04.073Z,11.60
2023-04-28T07:20:31.363Z,11.70
2023-04-28T07:23:03.739Z,11.70
2023-04-28T07:25:41.781Z,11.80
2023-04-28T07:28:09.780Z,11.80
2023-04-28T07:30:37.172Z,11.90
2023-04-28T07:33:05.805Z,11.90
2023-04-28T07:35:35.604Z,11.90
2023-04-28T07:38:03.164Z,11.90
2023-04-28T07:40:30.535Z,11.90
2023-04-28T07:43:03.791Z,11.90
2023-04-28T07:45:35.837Z,12.10
2023-04-28T07:48:08.424Z,12.10
2023-04-28T07:50:35.633Z,12.10
2023-04-28T07:53:02.850Z,12.20
2023-04-28T07:55:34.985Z,12.30
2023-04-28T07:58:23.518Z,12.40
2023-04-28T08:00:54.014Z,12.50
2023-04-28T08:03:48.088Z,12.40
2023-04-28T08:06:21.056Z,12.50
2023-04-28T08:08:49.469Z,12.50
2023-04-28T08:11:16.808Z,12.50
2023-04-28T08:13:43.955Z,12.50
2023-04-28T08:16:11.727Z,12.50
2023-04-28T08:18:40.109Z,12.50
2023-04-28T08:21:07.334Z,12.60
2023-04-28T08:23:34.426Z,12.60
2023-04-28T08:26:01.521Z,12.70
2023-04-28T08:28:29.282Z,12.90
2023-04-28T08:30:58.669Z,13.00
2023-04-28T08:33:26.158Z,13.20
2023-04-28T08:35:53.547Z,13.30
2023-04-28T08:38:25.404Z,13.50
2023-04-28T08:40:52.833Z,13.60
2023-04-28T08:43:21.963Z,13.70
2023-04-28T08:45:58.769Z,13.70
2023-04-28T08:48:41.939Z,13.70
2023-04-28T08:51:31.284Z,13.80
2023-04-28T08:54:26.464Z,13.70
2023-04-28T08:57:02.620Z,13.70
2023-04-28T08:59:35.593Z,13.80
2023-04-28T09:02:15.596Z,13.80
2023-04-28T09:04:51.048Z,13.90
2023-04-28T09:07:18.624Z,13.90
2023-04-28T09:09:48.481Z,13.80
2023-04-28T09:12:16.033Z,13.70
2023-04-28T09:14:43.224Z,13.70
2023-04-28T09:17:13.045Z,13.70
2023-04-28T09:19:43.396Z,13.70
2023-04-28T09:22:25.600Z,13.70
2023-04-28T09:24:56.434Z,13.70
2023-04-28T09:27:28.314Z,13.70
2023-04-28T09:29:55.842Z,13.70
2023-04-28T09:32:24.498Z,13.80
2023-04-28T09:35:02.579Z,13.90
2023-04-28T09:37:32.546Z,13.90
2023-04-28T09:40:08.759Z,13.90
2023-04-28T09:42:38.593Z,13.90
2023-04-28T09:45:11.356Z,13.90
2023-04-28T09:47:41.055Z,13.90
2023-04-28T09:50:17.594Z,14.00
2023-04-28T09:53:19.593Z,14.00
2023-04-28T10:02:41.965Z,14.00
2023-04-28T10:05:49.169Z,13.90
2023-04-28T10:12:46.049Z,13.90
2023-04-28T10:18:59.386Z,13.80
2023-04-28T10:21:30.942Z,13.80
2023-04-28T10:24:32.209Z,13.80
2023-04-28T10:27:10.053Z,13.90
2023-04-28T10:29:39.336Z,13.80
2023-04-28T10:32:16.667Z,13.80
2023-04-28T10:34:45.062Z,13.80
2023-04-28T10:37:19.528Z,13.90
2023-04-28T10:40:24.251Z,13.90
2023-04-28T10:43:00.868Z,14.00
2023-04-28T10:46:01.828Z,14.00
2023-04-28T10:48:58.087Z,14.10
2023-04-28T10:51:38.334Z,14.10
2023-04-28T10:54:25.572Z,14.10
2023-04-28T10:57:43.546Z,14.10
2023-04-28T11:03:52.608Z,14.10
2023-04-28T11:07:17.377Z,14.00
2023-04-28T11:09:54.703Z,14.00
2023-04-28T11:13:12.323Z,13.90
2023-04-28T11:15:43.528Z,14.00
2023-04-28T11:18:21.534Z,13.90
2023-04-28T11:21:01.868Z,13.90
2023-04-28T11:23:32.624Z,13.90
2023-04-28T11:26:05.833Z,14.00
2023-04-28T11:29:06.551Z,14.10
2023-04-28T11:34:40.243Z,14.20
2023-04-28T11:37:21.326Z,14.20
2023-04-28T11:39:55.226Z,14.20
2023-04-28T11:43:09.458Z,14.10
2023-04-28T11:45:47.179Z,14.10
2023-04-28T11:49:06.152Z,14.00
2023-04-28T11:58:10.114Z,13.90
2023-04-28T12:00:44.493Z,13.90
2023-04-28T12:11:19.635Z,14.30
2023-04-28T12:14:09.745Z,14.20
2023-04-28T12:16:44.118Z,14.20
2023-04-28T12:19:12.701Z,14.10
2023-04-28T12:22:07.746Z,14.00
2023-04-28T12:24:37.700Z,14.00
2023-04-28T12:27:20.809Z,14.00
2023-04-28T12:29:48.826Z,13.90
2023-04-28T12:36:30.800Z,13.80
2023-04-28T12:44:17.862Z,13.70
2023-04-28T12:57:05.698Z,13.90
2023-04-28T13:03:51.459Z,13.90
2023-04-28T13:09:00.640Z,13.90
2023-04-28T13:17:02.988Z,13.70
2023-04-28T13:19:31.634Z,13.70
2023-04-28T13:22:11.065Z,13.70
2023-04-28T13:24:38.246Z,13.80
2023-04-28T13:27:10.046Z,13.80
2023-04-28T13:29:38.063Z,13.90
2023-04-28T13:32:08.415Z,14.10
2023-04-28T13:34:37.661Z,14.20
2023-04-28T13:37:04.881Z,14.30
2023-04-28T13:39:32.691Z,14.40
2023-04-28T13:42:00.158Z,14.40
2023-04-28T13:44:27.109Z,14.50
2023-04-28T13:46:58.728Z,14.40
2023-04-28T13:49:32.105Z,14.40
2023-04-28T13:52:03.632Z,14.40
2023-04-28T13:54:33.780Z,14.30
2023-04-28T14:01:43.464Z,14.30
2023-04-28T14:04:15.767Z,14.40
2023-04-28T14:06:43.151Z,14.50
2023-04-28T14:22:11.248Z,14.40
2023-04-28T14:24:49.372Z,14.50
2023-04-28T14:27:34.283Z,14.50
2023-04-28T14:30:04.879Z,14.50
2023-04-28T14:32:32.248Z,14.50
2023-04-28T14:34:59.880Z,14.40
2023-04-28T14:37:28.530Z,14.40
2023-04-28T14:39:58.639Z,14.30
2023-04-28T14:42:39.223Z,14.30
2023-04-28T14:45:09.192Z,14.30
2023-04-28T14:47:39.288Z,14.30
2023-04-28T14:50:13.824Z,14.30
2023-04-28T14:52:44.611Z,14.20
2023-04-28T14:55:16.863Z,14.20
2023-04-28T14:57:44.200Z,14.20
2023-04-28T15:00:20.308Z,14.20
2023-04-28T15:02:47.603Z,14.20
2023-04-28T15:05:17.077Z,14.10
2023-04-28T15:07:44.249Z,14.10
2023-04-28T15:10:14.067Z,14.10
2023-04-28T15:12:51.973Z,14.20
2023-04-28T15:15:44.759Z,14.20
2023-04-28T15:18:18.100Z,14.20
2023-04-28T15:20:45.962Z,14.20
2023-04-28T15:23:20.167Z,14.20
2023-04-28T15:25:48.111Z,14.30
2023-04-28T15:28:18.281Z,14.30
2023-04-28T15:30:48.068Z,14.30
2023-04-28T15:33:17.946Z,14.30
2023-04-28T15:35:45.571Z,14.30
2023-04-28T15:38:13.187Z,14.30
2023-04-28T15:40:47.247Z,14.30
2023-04-28T15:43:20.311Z,14.20
2023-04-28T15:45:47.703Z,14.20
2023-04-28T15:48:21.204Z,14.20
2023-04-28T15:51:00.280Z,14.10
2023-04-28T15:53:30.159Z,13.90
2023-04-28T15:55:58.896Z,13.80
2023-04-28T15:58:26.941Z,13.80
2023-04-28T16:00:54.179Z,13.70
2023-04-28T16:03:21.543Z,13.70
2023-04-28T16:05:52.285Z,13.70
2023-04-28T16:08:20.813Z,13.70
2023-04-28T16:10:48.160Z,13.70
2023-04-28T16:13:15.442Z,13.70
2023-04-28T16:15:43.994Z,13.70
2023-04-28T16:18:11.362Z,13.70
2023-04-28T16:20:38.680Z,13.70
2023-04-28T16:23:07.003Z,13.70
2023-04-28T16:25:34.217Z,13.70
2023-04-28T16:28:01.483Z,13.70
2023-04-28T16:30:32.736Z,13.70
2023-04-28T16:33:03.056Z,13.70
2023-04-28T16:35:32.780Z,13.60
2023-04-28T16:38:01.243Z,13.60
2023-04-28T16:40:35.995Z,13.60
2023-04-28T16:43:05.046Z,13.60
2023-04-28T16:45:36.307Z,13.60
2023-04-28T16:48:06.346Z,13.60
2023-04-28T16:50:33.872Z,13.60
2023-04-28T16:53:01.031Z,13.60
2023-04-28T16:55:37.522Z,13.60
2023-04-28T16:58:42.554Z,13.60
2023-04-28T17:01:09.814Z,13.60
2023-04-28T17:03:59.400Z,13.50
2023-04-28T17:06:28.747Z,13.50
2023-04-28T17:09:10.212Z,13.50
2023-04-28T17:11:38.092Z,13.50
2023-04-28T17:14:07.377Z,13.50
2023-04-28T17:16:38.519Z,13.50
2023-04-28T17:19:06.527Z,13.50
2023-04-28T17:21:33.833Z,13.50
2023-04-28T17:24:02.291Z,13.40
2023-04-28T17:26:36.706Z,13.40
2023-04-28T17:29:07.021Z,13.40
2023-04-28T17:31:38.246Z,13.40
2023-04-28T17:34:16.504Z,13.40
2023-04-28T17:36:43.862Z,13.40
2023-04-28T17:39:15.576Z,13.40
2023-04-28T17:41:43.724Z,13.30
2023-04-28T17:44:10.798Z,13.30
2023-04-28T17:46:38.676Z,13.30
2023-04-28T17:49:26.956Z,13.30
2023-04-28T17:52:16.346Z,13.40
2023-04-28T17:54:43.673Z,13.40
2023-04-28T17:58:36.955Z,13.40
2023-04-28T18:04:19.837Z,13.30
2023-04-28T18:16:12.519Z,13.30
2023-04-28T18:18:38.242Z,13.30
2023-04-28T18:21:05.660Z,13.30
2023-04-28T18:23:45.108Z,13.30
2023-04-28T18:26:18.211Z,13.30
2023-04-28T18:28:48.375Z,13.30
2023-04-28T18:34:45.571Z,13.20
2023-04-28T18:44:38.807Z,13.20
2023-04-28T18:47:39.307Z,13.10
2023-04-28T18:50:41.147Z,13.10
2023-04-28T18:53:13.616Z,13.10
2023-04-28T18:55:45.800Z,13.10
2023-04-28T19:01:21.489Z,13.10
2023-04-28T19:03:49.394Z,13.10
2023-04-28T19:06:19.406Z,13.00
2023-04-28T19:08:46.501Z,13.00
2023-04-28T19:11:13.890Z,12.90
2023-04-28T19:13:44.929Z,12.80
2023-04-28T19:16:12.395Z,12.70
2023-04-28T19:18:42.334Z,12.70
2023-04-28T19:21:12.293Z,12.60
2023-04-28T19:23:43.482Z,12.50
2023-04-28T19:26:16.799Z,12.50
2023-04-28T19:28:44.425Z,12.50
2023-04-28T19:32:03.542Z,12.40
2023-04-28T19:34:42.063Z,12.40
2023-04-28T19:37:20.115Z,12.40
2023-04-28T19:40:06.328Z,12.40
2023-04-28T19:42:39.387Z,12.40
2023-04-28T19:45:18.164Z,12.40
2023-04-28T19:48:20.070Z,12.40
2023-04-28T19:52:03.637Z,12.40
2023-04-28T19:56:16.072Z,12.40
2023-04-28T19:58:55.844Z,12.40
2023-04-28T20:01:35.789Z,12.40
2023-04-28T20:04:17.720Z,12.40
2023-04-28T20:06:50.881Z,12.30
2023-04-28T20:09:52.884Z,12.30
2023-04-28T20:16:09.534Z,12.30
2023-04-28T20:19:01.426Z,12.30
2023-04-28T20:22:02.226Z,12.20
2023-04-28T20:32:32.759Z,12.20
2023-04-28T20:40:04.815Z,12.10
2023-04-28T20:42:33.388Z,12.00
2023-04-28T20:45:00.550Z,12.00
2023-04-28T20:47:28.100Z,11.90
2023-04-28T20:49:55.177Z,11.90
2023-04-28T20:52:22.399Z,11.90
2023-04-28T20:54:49.568Z,11.90
2023-04-28T20:57:16.706Z,11.90
2023-04-28T20:59:44.335Z,11.90
2023-04-28T21:02:11.484Z,11.90
2023-04-28T21:04:38.840Z,11.90
2023-04-28T21:07:05.990Z,11.90
2023-04-28T21:09:33.363Z,11.90
2023-04-28T21:12:00.812Z,11.90
2023-04-28T21:14:27.853Z,11.80
2023-04-28T21:16:55.011Z,11.90
2023-04-28T21:19:22.104Z,11.90
2023-04-28T21:21:49.202Z,11.90
2023-04-28T21:24:16.549Z,11.80
2023-04-28T21:26:44.943Z,11.80
2023-04-28T21:29:12.175Z,11.80
2023-04-28T21:31:39.628Z,11.80
2023-04-28T21:34:06.757Z,11.90
2023-04-28T21:36:36.795Z,11.80
2023-04-28T21:39:04.770Z,11.80
2023-04-28T21:41:32.051Z,11.80
2023-04-28T21:43:59.990Z,11.70
2023-04-28T21:46:50.414Z,11.70
2023-04-28T21:49:18.199Z,11.70
2023-04-28T21:51:46.016Z,11.70
2023-04-28T21:54:15.074Z,11.60
2023-04-28T21:56:42.275Z,11.50
2023-04-28T21:59:09.413Z,11.50
2023-04-28T22:01:36.636Z,11.50
2023-04-28T22:04:13.347Z,11.50
2023-04-28T22:06:40.845Z,11.50
2023-04-28T22:09:08.020Z,11.40
2023-04-28T22:11:35.160Z,11.40
2023-04-28T22:14:02.643Z,11.40
2023-04-28T22:16:29.880Z,11.40
2023-04-28T22:18:57.608Z,11.40
2023-04-28T22:21:24.859Z,11.30
2023-04-28T22:23:52.000Z,11.30
2023-04-28T22:26:31.327Z,11.30
2023-04-28T22:29:02.259Z,11.20
2023-04-28T22:31:29.345Z,11.20
2023-04-28T22:33:56.557Z,11.10
2023-04-28T22:36:26.445Z,11.10
2023-04-28T22:38:53.583Z,11.00
2023-04-28T22:41:20.646Z,11.00
2023-04-28T22:43:47.801Z,11.00
2023-04-28T22:46:18.360Z,11.00
2023-04-28T22:48:45.762Z,11.00
2023-04-28T22:51:14.285Z,10.90
2023-04-28T22:53:44.360Z,10.90
2023-04-28T22:56:14.484Z,10.90
2023-04-28T22:58:41.854Z,10.90
2023-04-28T23:01:09.476Z,10.80
2023-04-28T23:03:38.476Z,10.80
2023-04-28T23:06:05.840Z,10.80
2023-04-28T23:08:35.329Z,10.80
2023-04-28T23:11:06.881Z,10.80
2023-04-28T23:13:34.116Z,10.80
2023-04-28T23:16:01.744Z,10.70
2023-04-28T23:18:33.246Z,10.70
2023-04-28T23:21:00.593Z,10.70
2023-04-28T23:23:27.662Z,10.70
2023-04-28T23:25:55.748Z,10.70
2023-04-28T23:28:25.826Z,10.70
2023-04-28T23:30:55.540Z,10.60
2023-04-28T23:33:22.691Z,10.70
2023-04-28T23:35:49.881Z,10.70
2023-04-28T23:38:17.031Z,10.70
2023-04-28T23:40:44.240Z,10.70
2023-04-28T23:43:11.457Z,10.70
2023-04-28T23:45:38.727Z,10.70
2023-04-28T23:48:07.468Z,10.70
2023-04-28T23:50:34.683Z,10.70
2023-04-28T23:53:01.902Z,10.70
2023-04-28T23:55:31.749Z,10.70
2023-04-28T23:58:01.247Z,10.60
